Collinsville, Oklahoma
Current Conditions -  °F | °C
As of 2:53 AM on Friday 24 Oct 2014 (Local Time) from KTUL Reporting Station
Overcast Overcast  
Wind Chill: 60°   Ceiling: 5000
Heat Index: 60°   Visibility: 10mi
Dew Point: 56°   Wind: 5mph
Humidity: 86%   Direction: 170°S
Pressure: 30.1"   Gusts: NA
Location:  36.36°N, 95.84°W
Report Text: KTUL 240753Z 17004KT 10SM OVC050 16/13 A3010 RMK AO2 SLP190 T01560133
Loading
Personal Weather Stations






























Interactive Weather Map
Tropical Storm Tracking
New forecast layout! Learn more

10-Day Weather Forecast

Advertisements
Track Severe Weather on mobile